sensor_id;sensor_type;location;lat;lon;timestamp;P1;durP1;ratioP1;P2;durP2;ratioP2
3307;SDS011;1666;48.898;9.182;2023-01-26T00:01:21;40.50;;;18.80;;
3307;SDS011;1666;48.898;9.182;2023-01-26T00:03:53;40.25;;;17.35;;
3307;SDS011;1666;48.898;9.182;2023-01-26T00:06:23;36.83;;;17.25;;
3307;SDS011;1666;48.898;9.182;2023-01-26T00:08:54;38.67;;;17.15;;
3307;SDS011;1666;48.898;9.182;2023-01-26T00:11:25;39.15;;;18.15;;
3307;SDS011;1666;48.898;9.182;2023-01-26T00:13:59;39.35;;;17.75;;
3307;SDS011;1666;48.898;9.182;2023-01-26T00:16:29;40.47;;;17.90;;
3307;SDS011;1666;48.898;9.182;2023-01-26T00:18:59;42.25;;;17.42;;
3307;SDS011;1666;48.898;9.182;2023-01-26T00:21:29;39.40;;;16.80;;
3307;SDS011;1666;48.898;9.182;2023-01-26T00:23:59;34.13;;;16.48;;
3307;SDS011;1666;48.898;9.182;2023-01-26T00:26:30;35.55;;;15.65;;
3307;SDS011;1666;48.898;9.182;2023-01-26T00:29:02;37.17;;;17.17;;
3307;SDS011;1666;48.898;9.182;2023-01-26T00:31:32;41.13;;;18.23;;
3307;SDS011;1666;48.898;9.182;2023-01-26T00:34:02;38.60;;;16.98;;
3307;SDS011;1666;48.898;9.182;2023-01-26T00:36:32;37.08;;;18.15;;
3307;SDS011;1666;48.898;9.182;2023-01-26T00:39:03;33.53;;;15.93;;
3307;SDS011;1666;48.898;9.182;2023-01-26T00:41:33;34.55;;;15.73;;
3307;SDS011;1666;48.898;9.182;2023-01-26T00:46:50;41.05;;;16.58;;
3307;SDS011;1666;48.898;9.182;2023-01-26T00:49:20;34.53;;;15.75;;
3307;SDS011;1666;48.898;9.182;2023-01-26T00:51:49;28.13;;;13.23;;
3307;SDS011;1666;48.898;9.182;2023-01-26T00:54:19;31.60;;;14.45;;
3307;SDS011;1666;48.898;9.182;2023-01-26T00:56:49;28.00;;;13.52;;
3307;SDS011;1666;48.898;9.182;2023-01-26T00:59:21;29.38;;;14.65;;
3307;SDS011;1666;48.898;9.182;2023-01-26T01:01:51;31.27;;;14.07;;
3307;SDS011;1666;48.898;9.182;2023-01-26T01:04:22;31.52;;;14.35;;
3307;SDS011;1666;48.898;9.182;2023-01-26T01:06:52;30.40;;;13.95;;
3307;SDS011;1666;48.898;9.182;2023-01-26T01:09:21;36.50;;;15.52;;
3307;SDS011;1666;48.898;9.182;2023-01-26T01:11:51;30.98;;;14.75;;
3307;SDS011;1666;48.898;9.182;2023-01-26T01:14:24;28.75;;;13.38;;
3307;SDS011;1666;48.898;9.182;2023-01-26T01:16:54;33.20;;;14.57;;
3307;SDS011;1666;48.898;9.182;2023-01-26T01:19:24;31.33;;;14.02;;
3307;SDS011;1666;48.898;9.182;2023-01-26T01:21:53;27.65;;;13.18;;
3307;SDS011;1666;48.898;9.182;2023-01-26T01:24:23;30.27;;;14.48;;
3307;SDS011;1666;48.898;9.182;2023-01-26T01:26:53;31.90;;;13.70;;
3307;SDS011;1666;48.898;9.182;2023-01-26T01:29:25;29.58;;;14.00;;
3307;SDS011;1666;48.898;9.182;2023-01-26T01:31:55;30.77;;;15.30;;
3307;SDS011;1666;48.898;9.182;2023-01-26T01:34:25;28.27;;;14.15;;
3307;SDS011;1666;48.898;9.182;2023-01-26T01:36:56;30.60;;;14.07;;
3307;SDS011;1666;48.898;9.182;2023-01-26T01:39:25;31.55;;;14.85;;
3307;SDS011;1666;48.898;9.182;2023-01-26T01:41:55;27.58;;;13.43;;
3307;SDS011;1666;48.898;9.182;2023-01-26T01:44:28;26.73;;;13.27;;
3307;SDS011;1666;48.898;9.182;2023-01-26T01:46:58;29.67;;;13.48;;
3307;SDS011;1666;48.898;9.182;2023-01-26T01:49:31;31.67;;;13.73;;
3307;SDS011;1666;48.898;9.182;2023-01-26T01:52:06;28.20;;;13.63;;
3307;SDS011;1666;48.898;9.182;2023-01-26T01:54:40;28.85;;;13.90;;
3307;SDS011;1666;48.898;9.182;2023-01-26T01:57:14;31.27;;;13.63;;
3307;SDS011;1666;48.898;9.182;2023-01-26T01:59:56;26.02;;;13.15;;
3307;SDS011;1666;48.898;9.182;2023-01-26T02:02:31;30.48;;;14.70;;
3307;SDS011;1666;48.898;9.182;2023-01-26T02:05:02;33.63;;;14.18;;
3307;SDS011;1666;48.898;9.182;2023-01-26T02:07:42;28.13;;;14.05;;
3307;SDS011;1666;48.898;9.182;2023-01-26T02:10:12;30.45;;;13.52;;
3307;SDS011;1666;48.898;9.182;2023-01-26T02:12:49;29.85;;;13.55;;
3307;SDS011;1666;48.898;9.182;2023-01-26T02:15:28;30.92;;;13.75;;
3307;SDS011;1666;48.898;9.182;2023-01-26T02:17:59;27.92;;;13.00;;
3307;SDS011;1666;48.898;9.182;2023-01-26T02:20:32;37.90;;;15.80;;
3307;SDS011;1666;48.898;9.182;2023-01-26T02:23:05;32.88;;;14.85;;
3307;SDS011;1666;48.898;9.182;2023-01-26T02:25:45;32.00;;;14.25;;
3307;SDS011;1666;48.898;9.182;2023-01-26T02:28:26;29.58;;;14.68;;
3307;SDS011;1666;48.898;9.182;2023-01-26T02:30:58;34.25;;;16.05;;
3307;SDS011;1666;48.898;9.182;2023-01-26T02:33:30;29.85;;;13.88;;
3307;SDS011;1666;48.898;9.182;2023-01-26T02:36:01;29.70;;;13.55;;
3307;SDS011;1666;48.898;9.182;2023-01-26T02:38:34;32.55;;;14.40;;
3307;SDS011;1666;48.898;9.182;2023-01-26T02:41:11;29.90;;;14.35;;
3307;SDS011;1666;48.898;9.182;2023-01-26T02:44:05;31.42;;;14.23;;
3307;SDS011;1666;48.898;9.182;2023-01-26T02:46:35;28.45;;;14.48;;
3307;SDS011;1666;48.898;9.182;2023-01-26T02:49:05;31.80;;;13.85;;
3307;SDS011;1666;48.898;9.182;2023-01-26T02:51:48;26.42;;;13.23;;
3307;SDS011;1666;48.898;9.182;2023-01-26T02:54:17;30.60;;;14.07;;
3307;SDS011;1666;48.898;9.182;2023-01-26T02:57:02;40.17;;;14.82;;
3307;SDS011;1666;48.898;9.182;2023-01-26T02:59:32;34.92;;;15.48;;
3307;SDS011;1666;48.898;9.182;2023-01-26T03:02:02;35.65;;;15.65;;
3307;SDS011;1666;48.898;9.182;2023-01-26T03:04:32;39.00;;;15.68;;
3307;SDS011;1666;48.898;9.182;2023-01-26T03:07:01;35.15;;;15.23;;
3307;SDS011;1666;48.898;9.182;2023-01-26T03:09:31;36.70;;;15.65;;
3307;SDS011;1666;48.898;9.182;2023-01-26T03:12:04;32.13;;;15.40;;
3307;SDS011;1666;48.898;9.182;2023-01-26T03:14:34;33.35;;;15.35;;
3307;SDS011;1666;48.898;9.182;2023-01-26T03:17:03;39.33;;;15.70;;
3307;SDS011;1666;48.898;9.182;2023-01-26T03:19:33;38.92;;;17.77;;
3307;SDS011;1666;48.898;9.182;2023-01-26T03:22:16;40.35;;;18.08;;
3307;SDS011;1666;48.898;9.182;2023-01-26T03:24:58;42.95;;;17.98;;
3307;SDS011;1666;48.898;9.182;2023-01-26T03:27:43;39.25;;;17.95;;
3307;SDS011;1666;48.898;9.182;2023-01-26T03:30:15;44.72;;;18.67;;
3307;SDS011;1666;48.898;9.182;2023-01-26T03:32:47;42.92;;;17.95;;
3307;SDS011;1666;48.898;9.182;2023-01-26T03:35:16;39.33;;;18.00;;
3307;SDS011;1666;48.898;9.182;2023-01-26T03:37:48;44.88;;;18.92;;
3307;SDS011;1666;48.898;9.182;2023-01-26T03:40:20;48.55;;;19.13;;
3307;SDS011;1666;48.898;9.182;2023-01-26T03:43:08;46.80;;;19.33;;
3307;SDS011;1666;48.898;9.182;2023-01-26T03:45:50;45.47;;;19.52;;
3307;SDS011;1666;48.898;9.182;2023-01-26T03:48:32;49.22;;;19.98;;
3307;SDS011;1666;48.898;9.182;2023-01-26T03:51:15;50.47;;;19.35;;
3307;SDS011;1666;48.898;9.182;2023-01-26T03:53:57;45.00;;;19.95;;
3307;SDS011;1666;48.898;9.182;2023-01-26T03:56:39;41.33;;;18.23;;
3307;SDS011;1666;48.898;9.182;2023-01-26T03:59:12;41.47;;;19.45;;
3307;SDS011;1666;48.898;9.182;2023-01-26T04:01:43;41.08;;;18.73;;
3307;SDS011;1666;48.898;9.182;2023-01-26T04:04:27;54.58;;;20.45;;
3307;SDS011;1666;48.898;9.182;2023-01-26T04:07:09;43.40;;;20.00;;
3307;SDS011;1666;48.898;9.182;2023-01-26T04:09:52;47.63;;;19.33;;
3307;SDS011;1666;48.898;9.182;2023-01-26T04:12:21;45.85;;;19.63;;
3307;SDS011;1666;48.898;9.182;2023-01-26T04:14:54;45.30;;;20.67;;
3307;SDS011;1666;48.898;9.182;2023-01-26T04:20:18;45.72;;;19.65;;
3307;SDS011;1666;48.898;9.182;2023-01-26T04:23:00;45.00;;;19.80;;
3307;SDS011;1666;48.898;9.182;2023-01-26T04:25:30;43.00;;;18.15;;
3307;SDS011;1666;48.898;9.182;2023-01-26T04:28:00;48.63;;;20.38;;
3307;SDS011;1666;48.898;9.182;2023-01-26T04:30:32;41.58;;;19.10;;
3307;SDS011;1666;48.898;9.182;2023-01-26T04:33:02;47.25;;;18.95;;
3307;SDS011;1666;48.898;9.182;2023-01-26T04:35:32;41.58;;;18.13;;
3307;SDS011;1666;48.898;9.182;2023-01-26T04:38:02;37.33;;;17.48;;
3307;SDS011;1666;48.898;9.182;2023-01-26T04:40:32;40.75;;;18.25;;
3307;SDS011;1666;48.898;9.182;2023-01-26T04:43:02;41.60;;;18.23;;
3307;SDS011;1666;48.898;9.182;2023-01-26T04:45:34;42.08;;;17.98;;
3307;SDS011;1666;48.898;9.182;2023-01-26T04:48:04;41.58;;;17.25;;
3307;SDS011;1666;48.898;9.182;2023-01-26T04:50:34;35.72;;;15.57;;
3307;SDS011;1666;48.898;9.182;2023-01-26T04:53:04;39.63;;;18.30;;
3307;SDS011;1666;48.898;9.182;2023-01-26T04:55:34;41.15;;;17.20;;
3307;SDS011;1666;48.898;9.182;2023-01-26T04:58:03;42.25;;;18.25;;
3307;SDS011;1666;48.898;9.182;2023-01-26T05:00:36;44.60;;;18.05;;
3307;SDS011;1666;48.898;9.182;2023-01-26T05:03:06;43.50;;;17.48;;
3307;SDS011;1666;48.898;9.182;2023-01-26T05:05:36;48.33;;;19.27;;
3307;SDS011;1666;48.898;9.182;2023-01-26T05:08:06;41.90;;;18.80;;
3307;SDS011;1666;48.898;9.182;2023-01-26T05:10:36;44.60;;;18.15;;
3307;SDS011;1666;48.898;9.182;2023-01-26T05:13:05;47.50;;;19.38;;
3307;SDS011;1666;48.898;9.182;2023-01-26T05:15:38;48.78;;;18.90;;
3307;SDS011;1666;48.898;9.182;2023-01-26T05:18:08;41.95;;;18.73;;
3307;SDS011;1666;48.898;9.182;2023-01-26T05:20:39;45.88;;;19.85;;
3307;SDS011;1666;48.898;9.182;2023-01-26T05:23:09;41.25;;;18.58;;
3307;SDS011;1666;48.898;9.182;2023-01-26T05:25:39;38.78;;;17.65;;
3307;SDS011;1666;48.898;9.182;2023-01-26T05:28:09;47.53;;;18.50;;
3307;SDS011;1666;48.898;9.182;2023-01-26T05:30:41;44.10;;;18.45;;
3307;SDS011;1666;48.898;9.182;2023-01-26T05:33:11;48.45;;;20.30;;
3307;SDS011;1666;48.898;9.182;2023-01-26T05:35:41;42.10;;;19.27;;
3307;SDS011;1666;48.898;9.182;2023-01-26T05:38:11;45.75;;;18.90;;
3307;SDS011;1666;48.898;9.182;2023-01-26T05:40:40;44.45;;;19.67;;
3307;SDS011;1666;48.898;9.182;2023-01-26T05:43:11;49.45;;;18.90;;
3307;SDS011;1666;48.898;9.182;2023-01-26T05:45:43;48.08;;;20.45;;
3307;SDS011;1666;48.898;9.182;2023-01-26T05:48:13;44.78;;;19.02;;
3307;SDS011;1666;48.898;9.182;2023-01-26T05:50:43;48.60;;;19.00;;
3307;SDS011;1666;48.898;9.182;2023-01-26T05:53:13;45.90;;;18.52;;
3307;SDS011;1666;48.898;9.182;2023-01-26T05:55:43;42.13;;;19.08;;
3307;SDS011;1666;48.898;9.182;2023-01-26T05:58:14;38.28;;;18.70;;
3307;SDS011;1666;48.898;9.182;2023-01-26T06:00:46;42.03;;;17.90;;
3307;SDS011;1666;48.898;9.182;2023-01-26T06:03:16;44.10;;;18.85;;
3307;SDS011;1666;48.898;9.182;2023-01-26T06:05:51;43.10;;;18.33;;
3307;SDS011;1666;48.898;9.182;2023-01-26T06:08:21;52.03;;;19.48;;
3307;SDS011;1666;48.898;9.182;2023-01-26T06:10:51;46.85;;;19.70;;
3307;SDS011;1666;48.898;9.182;2023-01-26T06:13:27;44.55;;;18.25;;
3307;SDS011;1666;48.898;9.182;2023-01-26T06:16:01;42.22;;;18.35;;
3307;SDS011;1666;48.898;9.182;2023-01-26T06:18:31;38.55;;;18.02;;
3307;SDS011;1666;48.898;9.182;2023-01-26T06:21:01;45.45;;;19.10;;
3307;SDS011;1666;48.898;9.182;2023-01-26T06:23:31;44.00;;;19.27;;
3307;SDS011;1666;48.898;9.182;2023-01-26T06:26:01;43.97;;;19.02;;
3307;SDS011;1666;48.898;9.182;2023-01-26T06:28:31;39.47;;;18.98;;
3307;SDS011;1666;48.898;9.182;2023-01-26T06:31:06;42.13;;;18.02;;
3307;SDS011;1666;48.898;9.182;2023-01-26T06:33:37;41.40;;;18.42;;
3307;SDS011;1666;48.898;9.182;2023-01-26T06:36:08;44.55;;;18.38;;
3307;SDS011;1666;48.898;9.182;2023-01-26T06:38:43;45.22;;;21.05;;
3307;SDS011;1666;48.898;9.182;2023-01-26T06:41:14;48.97;;;19.88;;
3307;SDS011;1666;48.898;9.182;2023-01-26T06:43:45;40.83;;;18.35;;
3307;SDS011;1666;48.898;9.182;2023-01-26T06:46:19;49.33;;;18.77;;
3307;SDS011;1666;48.898;9.182;2023-01-26T06:48:49;40.45;;;17.80;;
3307;SDS011;1666;48.898;9.182;2023-01-26T06:51:34;36.25;;;16.58;;
3307;SDS011;1666;48.898;9.182;2023-01-26T06:54:11;39.72;;;17.85;;
3307;SDS011;1666;48.898;9.182;2023-01-26T06:56:42;30.77;;;13.98;;
3307;SDS011;1666;48.898;9.182;2023-01-26T06:59:12;31.63;;;14.70;;
3307;SDS011;1666;48.898;9.182;2023-01-26T07:01:45;36.92;;;15.20;;
3307;SDS011;1666;48.898;9.182;2023-01-26T07:06:46;34.35;;;15.10;;
3307;SDS011;1666;48.898;9.182;2023-01-26T07:09:16;32.45;;;13.85;;
3307;SDS011;1666;48.898;9.182;2023-01-26T07:11:46;32.33;;;15.77;;
3307;SDS011;1666;48.898;9.182;2023-01-26T07:14:15;35.53;;;15.35;;
3307;SDS011;1666;48.898;9.182;2023-01-26T07:16:48;31.05;;;14.40;;
3307;SDS011;1666;48.898;9.182;2023-01-26T07:19:18;34.90;;;15.88;;
3307;SDS011;1666;48.898;9.182;2023-01-26T07:21:48;32.95;;;15.20;;
3307;SDS011;1666;48.898;9.182;2023-01-26T07:24:17;32.78;;;15.40;;
3307;SDS011;1666;48.898;9.182;2023-01-26T07:26:47;36.53;;;17.27;;
3307;SDS011;1666;48.898;9.182;2023-01-26T07:29:17;34.45;;;15.30;;
3307;SDS011;1666;48.898;9.182;2023-01-26T07:31:50;38.83;;;18.80;;
3307;SDS011;1666;48.898;9.182;2023-01-26T07:34:20;38.33;;;17.10;;
3307;SDS011;1666;48.898;9.182;2023-01-26T07:36:50;35.35;;;15.75;;
3307;SDS011;1666;48.898;9.182;2023-01-26T07:39:20;37.35;;;16.40;;
3307;SDS011;1666;48.898;9.182;2023-01-26T07:41:50;40.70;;;17.83;;
3307;SDS011;1666;48.898;9.182;2023-01-26T07:44:19;32.20;;;16.25;;
3307;SDS011;1666;48.898;9.182;2023-01-26T07:46:52;36.72;;;16.02;;
3307;SDS011;1666;48.898;9.182;2023-01-26T07:49:22;34.03;;;15.77;;
3307;SDS011;1666;48.898;9.182;2023-01-26T07:51:52;33.30;;;16.40;;
3307;SDS011;1666;48.898;9.182;2023-01-26T07:54:22;37.83;;;16.92;;
3307;SDS011;1666;48.898;9.182;2023-01-26T07:56:52;38.97;;;16.70;;
3307;SDS011;1666;48.898;9.182;2023-01-26T07:59:22;34.42;;;15.73;;
3307;SDS011;1666;48.898;9.182;2023-01-26T08:01:55;36.70;;;17.45;;
3307;SDS011;1666;48.898;9.182;2023-01-26T08:04:25;35.95;;;16.75;;
3307;SDS011;1666;48.898;9.182;2023-01-26T08:06:55;37.92;;;16.35;;
3307;SDS011;1666;48.898;9.182;2023-01-26T08:09:25;35.53;;;15.57;;
3307;SDS011;1666;48.898;9.182;2023-01-26T08:11:55;29.77;;;13.52;;
3307;SDS011;1666;48.898;9.182;2023-01-26T08:14:25;35.92;;;15.30;;
3307;SDS011;1666;48.898;9.182;2023-01-26T08:17:14;33.95;;;15.30;;
3307;SDS011;1666;48.898;9.182;2023-01-26T08:19:44;33.25;;;15.25;;
3307;SDS011;1666;48.898;9.182;2023-01-26T08:22:14;35.47;;;13.98;;
3307;SDS011;1666;48.898;9.182;2023-01-26T08:24:44;34.63;;;15.63;;
3307;SDS011;1666;48.898;9.182;2023-01-26T08:27:16;31.08;;;16.23;;
3307;SDS011;1666;48.898;9.182;2023-01-26T08:29:48;29.23;;;13.55;;
3307;SDS011;1666;48.898;9.182;2023-01-26T08:32:20;28.58;;;13.90;;
3307;SDS011;1666;48.898;9.182;2023-01-26T08:34:50;28.95;;;13.52;;
3307;SDS011;1666;48.898;9.182;2023-01-26T08:37:22;30.92;;;14.15;;
3307;SDS011;1666;48.898;9.182;2023-01-26T08:39:52;33.03;;;16.42;;
3307;SDS011;1666;48.898;9.182;2023-01-26T08:42:22;32.33;;;15.05;;
3307;SDS011;1666;48.898;9.182;2023-01-26T08:44:52;35.67;;;15.93;;
3307;SDS011;1666;48.898;9.182;2023-01-26T08:47:24;33.33;;;15.35;;
3307;SDS011;1666;48.898;9.182;2023-01-26T08:49:54;33.88;;;15.80;;
3307;SDS011;1666;48.898;9.182;2023-01-26T08:52:24;30.48;;;14.07;;
3307;SDS011;1666;48.898;9.182;2023-01-26T08:54:54;29.67;;;12.63;;
3307;SDS011;1666;48.898;9.182;2023-01-26T08:57:24;27.38;;;13.60;;
3307;SDS011;1666;48.898;9.182;2023-01-26T08:59:54;26.30;;;12.50;;
3307;SDS011;1666;48.898;9.182;2023-01-26T09:02:26;28.42;;;12.90;;
3307;SDS011;1666;48.898;9.182;2023-01-26T09:04:56;29.73;;;13.40;;
3307;SDS011;1666;48.898;9.182;2023-01-26T09:07:26;26.13;;;12.05;;
3307;SDS011;1666;48.898;9.182;2023-01-26T09:09:56;29.23;;;13.15;;
3307;SDS011;1666;48.898;9.182;2023-01-26T09:12:26;31.95;;;13.45;;
3307;SDS011;1666;48.898;9.182;2023-01-26T09:14:55;25.48;;;12.05;;
3307;SDS011;1666;48.898;9.182;2023-01-26T09:17:28;25.23;;;13.27;;
3307;SDS011;1666;48.898;9.182;2023-01-26T09:19:58;25.17;;;12.27;;
3307;SDS011;1666;48.898;9.182;2023-01-26T09:22:27;25.27;;;11.70;;
3307;SDS011;1666;48.898;9.182;2023-01-26T09:24:57;31.77;;;12.65;;
3307;SDS011;1666;48.898;9.182;2023-01-26T09:27:27;26.20;;;12.02;;
3307;SDS011;1666;48.898;9.182;2023-01-26T09:29:57;27.88;;;12.07;;
3307;SDS011;1666;48.898;9.182;2023-01-26T09:32:29;26.25;;;12.00;;
3307;SDS011;1666;48.898;9.182;2023-01-26T09:34:59;23.58;;;11.57;;
3307;SDS011;1666;48.898;9.182;2023-01-26T09:37:29;26.45;;;12.45;;
3307;SDS011;1666;48.898;9.182;2023-01-26T09:39:59;26.05;;;10.68;;
3307;SDS011;1666;48.898;9.182;2023-01-26T09:42:31;27.05;;;12.00;;
3307;SDS011;1666;48.898;9.182;2023-01-26T09:48:13;28.52;;;12.85;;
3307;SDS011;1666;48.898;9.182;2023-01-26T09:50:53;23.05;;;10.90;;
3307;SDS011;1666;48.898;9.182;2023-01-26T09:53:26;26.42;;;11.68;;
3307;SDS011;1666;48.898;9.182;2023-01-26T09:56:05;23.23;;;10.60;;
3307;SDS011;1666;48.898;9.182;2023-01-26T09:58:41;24.15;;;10.38;;
3307;SDS011;1666;48.898;9.182;2023-01-26T10:01:16;23.73;;;10.27;;
3307;SDS011;1666;48.898;9.182;2023-01-26T10:03:57;26.08;;;11.00;;
3307;SDS011;1666;48.898;9.182;2023-01-26T10:06:31;25.20;;;10.80;;
3307;SDS011;1666;48.898;9.182;2023-01-26T10:09:09;22.73;;;11.38;;
3307;SDS011;1666;48.898;9.182;2023-01-26T10:11:45;25.13;;;11.52;;
3307;SDS011;1666;48.898;9.182;2023-01-26T10:14:18;20.38;;;10.25;;
3307;SDS011;1666;48.898;9.182;2023-01-26T10:16:49;22.48;;;10.30;;
3307;SDS011;1666;48.898;9.182;2023-01-26T10:19:32;22.23;;;10.15;;
3307;SDS011;1666;48.898;9.182;2023-01-26T10:22:06;22.63;;;10.02;;
3307;SDS011;1666;48.898;9.182;2023-01-26T10:24:41;22.00;;;8.63;;
3307;SDS011;1666;48.898;9.182;2023-01-26T10:27:15;18.75;;;9.80;;
3307;SDS011;1666;48.898;9.182;2023-01-26T10:29:45;21.48;;;9.98;;
3307;SDS011;1666;48.898;9.182;2023-01-26T10:32:15;18.88;;;9.63;;
3307;SDS011;1666;48.898;9.182;2023-01-26T10:34:49;19.38;;;7.95;;
3307;SDS011;1666;48.898;9.182;2023-01-26T10:37:20;23.25;;;9.65;;
3307;SDS011;1666;48.898;9.182;2023-01-26T10:39:58;18.00;;;8.82;;
3307;SDS011;1666;48.898;9.182;2023-01-26T10:42:30;19.77;;;9.18;;
3307;SDS011;1666;48.898;9.182;2023-01-26T10:45:03;18.88;;;10.18;;
3307;SDS011;1666;48.898;9.182;2023-01-26T10:47:34;20.73;;;9.10;;
3307;SDS011;1666;48.898;9.182;2023-01-26T10:50:19;19.38;;;9.32;;
3307;SDS011;1666;48.898;9.182;2023-01-26T10:52:57;19.80;;;9.77;;
3307;SDS011;1666;48.898;9.182;2023-01-26T10:55:29;17.27;;;8.85;;
3307;SDS011;1666;48.898;9.182;2023-01-26T10:58:02;18.25;;;8.65;;
3307;SDS011;1666;48.898;9.182;2023-01-26T11:00:32;14.77;;;7.65;;
3307;SDS011;1666;48.898;9.182;2023-01-26T11:03:15;17.52;;;8.88;;
3307;SDS011;1666;48.898;9.182;2023-01-26T11:05:49;21.90;;;10.25;;
3307;SDS011;1666;48.898;9.182;2023-01-26T11:08:35;22.88;;;9.88;;
3307;SDS011;1666;48.898;9.182;2023-01-26T11:11:19;21.02;;;9.27;;
3307;SDS011;1666;48.898;9.182;2023-01-26T11:16:39;20.98;;;9.30;;
3307;SDS011;1666;48.898;9.182;2023-01-26T11:19:15;19.25;;;9.07;;
3307;SDS011;1666;48.898;9.182;2023-01-26T11:21:57;21.17;;;10.32;;
3307;SDS011;1666;48.898;9.182;2023-01-26T11:24:33;18.17;;;10.00;;
3307;SDS011;1666;48.898;9.182;2023-01-26T11:33:07;19.42;;;9.15;;
3307;SDS011;1666;48.898;9.182;2023-01-26T11:35:48;20.27;;;9.23;;
3307;SDS011;1666;48.898;9.182;2023-01-26T11:38:27;20.08;;;9.25;;
3307;SDS011;1666;48.898;9.182;2023-01-26T11:41:19;22.45;;;10.13;;
3307;SDS011;1666;48.898;9.182;2023-01-26T11:44:09;19.35;;;8.60;;
3307;SDS011;1666;48.898;9.182;2023-01-26T11:46:56;21.25;;;10.05;;
3307;SDS011;1666;48.898;9.182;2023-01-26T11:49:39;21.67;;;9.13;;
3307;SDS011;1666;48.898;9.182;2023-01-26T11:52:32;25.83;;;11.55;;
3307;SDS011;1666;48.898;9.182;2023-01-26T11:55:17;26.02;;;11.80;;
3307;SDS011;1666;48.898;9.182;2023-01-26T11:58:05;22.95;;;12.10;;
3307;SDS011;1666;48.898;9.182;2023-01-26T12:00:43;23.08;;;11.02;;
3307;SDS011;1666;48.898;9.182;2023-01-26T12:03:18;26.65;;;13.65;;
3307;SDS011;1666;48.898;9.182;2023-01-26T12:05:54;29.30;;;13.52;;
3307;SDS011;1666;48.898;9.182;2023-01-26T12:08:30;30.60;;;13.20;;
3307;SDS011;1666;48.898;9.182;2023-01-26T12:11:09;27.23;;;12.90;;
3307;SDS011;1666;48.898;9.182;2023-01-26T12:13:58;31.95;;;13.68;;
3307;SDS011;1666;48.898;9.182;2023-01-26T12:16:35;29.42;;;12.88;;
3307;SDS011;1666;48.898;9.182;2023-01-26T12:19:12;27.50;;;13.15;;
3307;SDS011;1666;48.898;9.182;2023-01-26T12:21:53;31.30;;;15.20;;
3307;SDS011;1666;48.898;9.182;2023-01-26T12:24:32;32.15;;;13.98;;
3307;SDS011;1666;48.898;9.182;2023-01-26T12:27:30;30.83;;;15.23;;
3307;SDS011;1666;48.898;9.182;2023-01-26T12:30:08;32.22;;;14.25;;
3307;SDS011;1666;48.898;9.182;2023-01-26T12:32:52;30.85;;;12.43;;
3307;SDS011;1666;48.898;9.182;2023-01-26T12:35:26;28.38;;;12.93;;
3307;SDS011;1666;48.898;9.182;2023-01-26T12:38:06;30.92;;;14.00;;
3307;SDS011;1666;48.898;9.182;2023-01-26T12:40:47;31.23;;;13.88;;
3307;SDS011;1666;48.898;9.182;2023-01-26T12:43:35;25.23;;;12.35;;
3307;SDS011;1666;48.898;9.182;2023-01-26T12:46:12;25.13;;;13.00;;
3307;SDS011;1666;48.898;9.182;2023-01-26T12:48:44;25.88;;;12.75;;
3307;SDS011;1666;48.898;9.182;2023-01-26T12:51:18;27.48;;;12.32;;
3307;SDS011;1666;48.898;9.182;2023-01-26T12:53:53;27.52;;;11.73;;
3307;SDS011;1666;48.898;9.182;2023-01-26T12:56:28;28.25;;;13.27;;
3307;SDS011;1666;48.898;9.182;2023-01-26T12:59:05;27.80;;;12.68;;
3307;SDS011;1666;48.898;9.182;2023-01-26T13:02:08;28.98;;;14.43;;
3307;SDS011;1666;48.898;9.182;2023-01-26T13:04:46;27.85;;;12.15;;
3307;SDS011;1666;48.898;9.182;2023-01-26T13:07:25;25.55;;;12.35;;
3307;SDS011;1666;48.898;9.182;2023-01-26T13:10:08;28.27;;;14.23;;
3307;SDS011;1666;48.898;9.182;2023-01-26T13:12:53;30.17;;;13.23;;
3307;SDS011;1666;48.898;9.182;2023-01-26T13:15:28;29.23;;;13.02;;
3307;SDS011;1666;48.898;9.182;2023-01-26T13:18:00;28.50;;;12.73;;
3307;SDS011;1666;48.898;9.182;2023-01-26T13:26:12;26.85;;;14.10;;
3307;SDS011;1666;48.898;9.182;2023-01-26T13:28:44;27.80;;;12.48;;
3307;SDS011;1666;48.898;9.182;2023-01-26T13:31:32;28.38;;;13.73;;
3307;SDS011;1666;48.898;9.182;2023-01-26T13:34:05;28.45;;;12.73;;
3307;SDS011;1666;48.898;9.182;2023-01-26T13:36:37;25.00;;;11.63;;
3307;SDS011;1666;48.898;9.182;2023-01-26T13:39:11;25.70;;;11.02;;
3307;SDS011;1666;48.898;9.182;2023-01-26T13:41:46;29.60;;;12.70;;
3307;SDS011;1666;48.898;9.182;2023-01-26T13:44:17;23.15;;;11.55;;
3307;SDS011;1666;48.898;9.182;2023-01-26T13:46:55;22.67;;;11.13;;
3307;SDS011;1666;48.898;9.182;2023-01-26T13:49:35;27.60;;;11.73;;
3307;SDS011;1666;48.898;9.182;2023-01-26T13:52:14;23.92;;;11.70;;
3307;SDS011;1666;48.898;9.182;2023-01-26T13:54:46;26.15;;;11.95;;
3307;SDS011;1666;48.898;9.182;2023-01-26T13:57:20;24.25;;;11.25;;
3307;SDS011;1666;48.898;9.182;2023-01-26T13:59:52;25.98;;;10.98;;
3307;SDS011;1666;48.898;9.182;2023-01-26T14:02:28;25.90;;;10.75;;
3307;SDS011;1666;48.898;9.182;2023-01-26T14:05:00;20.98;;;10.10;;
3307;SDS011;1666;48.898;9.182;2023-01-26T14:07:31;23.90;;;11.13;;
3307;SDS011;1666;48.898;9.182;2023-01-26T14:10:06;24.65;;;11.70;;
3307;SDS011;1666;48.898;9.182;2023-01-26T14:12:44;26.40;;;10.95;;
3307;SDS011;1666;48.898;9.182;2023-01-26T14:15:20;22.20;;;10.13;;
3307;SDS011;1666;48.898;9.182;2023-01-26T14:17:57;24.45;;;11.15;;
3307;SDS011;1666;48.898;9.182;2023-01-26T14:20:33;29.27;;;10.38;;
3307;SDS011;1666;48.898;9.182;2023-01-26T14:23:10;21.90;;;10.60;;
3307;SDS011;1666;48.898;9.182;2023-01-26T14:25:44;20.77;;;9.43;;
3307;SDS011;1666;48.898;9.182;2023-01-26T14:28:17;21.60;;;10.80;;
3307;SDS011;1666;48.898;9.182;2023-01-26T14:30:51;22.88;;;9.30;;
3307;SDS011;1666;48.898;9.182;2023-01-26T14:35:58;27.27;;;11.30;;
3307;SDS011;1666;48.898;9.182;2023-01-26T14:38:30;24.92;;;11.70;;
3307;SDS011;1666;48.898;9.182;2023-01-26T14:41:12;22.55;;;10.00;;
3307;SDS011;1666;48.898;9.182;2023-01-26T14:43:45;22.42;;;11.20;;
3307;SDS011;1666;48.898;9.182;2023-01-26T14:46:22;23.58;;;11.23;;
3307;SDS011;1666;48.898;9.182;2023-01-26T14:48:58;24.27;;;10.43;;
3307;SDS011;1666;48.898;9.182;2023-01-26T14:51:32;22.05;;;11.13;;
3307;SDS011;1666;48.898;9.182;2023-01-26T14:54:09;23.38;;;10.18;;
3307;SDS011;1666;48.898;9.182;2023-01-26T14:56:45;25.15;;;10.70;;
3307;SDS011;1666;48.898;9.182;2023-01-26T14:59:17;19.10;;;9.63;;
3307;SDS011;1666;48.898;9.182;2023-01-26T15:01:50;20.23;;;9.77;;
3307;SDS011;1666;48.898;9.182;2023-01-26T15:04:35;23.73;;;12.30;;
3307;SDS011;1666;48.898;9.182;2023-01-26T15:07:20;25.02;;;11.35;;
3307;SDS011;1666;48.898;9.182;2023-01-26T15:12:59;27.10;;;11.85;;
3307;SDS011;1666;48.898;9.182;2023-01-26T15:15:32;28.10;;;11.38;;
3307;SDS011;1666;48.898;9.182;2023-01-26T15:21:10;23.98;;;11.50;;
3307;SDS011;1666;48.898;9.182;2023-01-26T15:23:43;22.98;;;10.75;;
3307;SDS011;1666;48.898;9.182;2023-01-26T15:26:15;26.23;;;12.45;;
3307;SDS011;1666;48.898;9.182;2023-01-26T15:28:54;23.50;;;11.82;;
3307;SDS011;1666;48.898;9.182;2023-01-26T15:31:27;24.73;;;12.32;;
3307;SDS011;1666;48.898;9.182;2023-01-26T15:33:59;25.05;;;11.20;;
3307;SDS011;1666;48.898;9.182;2023-01-26T15:36:33;26.40;;;11.80;;
3307;SDS011;1666;48.898;9.182;2023-01-26T15:41:45;28.58;;;12.77;;
3307;SDS011;1666;48.898;9.182;2023-01-26T15:44:27;27.50;;;13.00;;
3307;SDS011;1666;48.898;9.182;2023-01-26T15:46:57;24.92;;;11.90;;
3307;SDS011;1666;48.898;9.182;2023-01-26T15:49:26;28.00;;;12.55;;
3307;SDS011;1666;48.898;9.182;2023-01-26T15:51:59;27.25;;;12.90;;
3307;SDS011;1666;48.898;9.182;2023-01-26T15:54:30;38.33;;;16.95;;
3307;SDS011;1666;48.898;9.182;2023-01-26T15:56:59;28.25;;;12.25;;
3307;SDS011;1666;48.898;9.182;2023-01-26T15:59:29;26.20;;;12.68;;
3307;SDS011;1666;48.898;9.182;2023-01-26T16:01:59;29.13;;;12.65;;
3307;SDS011;1666;48.898;9.182;2023-01-26T16:04:29;25.88;;;12.02;;